Delta, Kentucky
Current Conditions -  °F | °C
As of 2:56 AM on Sunday 23 Nov 2014 (Local Time) from KEKQ Reporting Station
Clear Clear  
Wind Chill: 52°   Ceiling: Unl
Heat Index: 52°   Visibility: 10mi
Dew Point: 38°   Wind: 7mph
Humidity: 59%   Direction: 170°S
Pressure: 30.1"   Gusts: NA
Location:  36.8129°N, 84.8215°W
Report Text: KEKQ 230756Z AUTO 17006KT 10SM CLR 11/03 A3010 RMK AO2 T01110033 SLP192
Loading
Personal Weather Stations






























Interactive Weather Map New forecast layout! Learn more

10-Day Weather Forecast

Advertisements
Track Severe Weather on mobile